Terminal Aerodrome Forecast
Issued by NWS

Home | Current Version | Previous Version | Text Only | Print | Product List | Glossary On
Versions: 1 2 3 4 5 6 7 8 9 10 11 12 13
000
FTUS45 KRIW 310500
TAFCPR
TAF
KCPR 310537Z 3106/0106 VRB05KT P6SM SCT110
     FM310800 27012G20KT P6SM VCTS SCT070CB BKN100
     FM311000 VRB08KT P6SM -SHRA SCT035 OVC070
     FM311500 24010KT P6SM VCSH SCT050 BKN080
     FM311900 28014KT P6SM BKN080
     FM312300 35011KT P6SM SCT050 BKN080=

USA.gov is the U.S. government's official web portal to all federal, state and local government web resources and services.